VNDR weather

Dhorpatan Airport
Dhorpatan, Dhawalagiri, Nepal

Public forecast

Using degrees Celsius for public forecast. Weather courtesy of forecast.io.

METAR (pilot weather report)

Closest report is Gorakhpur Airport, 107.3 nm (198.8 km) SSE. Retrieved 2019/07/21 09:30 UTC (19 minutes ago):

VEGK 210930Z VRB01KT 6000 VCSH SCT025 FEW030TCU SCT035 36/29 Q1001 TEMPO TSRA

TAF (pilot weather forecast)

Closest forecast is Gorakhpur Airport, 107.3 nm (198.8 km) SSE. Retrieved 2019/07/21 06:30 UTC (3 hours ago):

TAF VEGK 210330Z 2106/2118 13010KT 6000 SCT025 SCT100 TEMPO 2110/2113 13015G25KT 3000 TSRA SCT020 FEW025CB SCT090